sensor_id;sensor_type;location;lat;lon;timestamp;pressure;altitude;pressure_sealevel;temperature;humidity
13968;BME280;39536;52.198;9.920;2024-03-07T00:01:57;101790.91;;;4.48;100.00
13968;BME280;39536;52.198;9.920;2024-03-07T00:04:24;101797.75;;;4.45;100.00
13968;BME280;39536;52.198;9.920;2024-03-07T00:06:51;101806.28;;;4.40;100.00
13968;BME280;39536;52.198;9.920;2024-03-07T00:09:17;101797.69;;;4.42;100.00
13968;BME280;39536;52.198;9.920;2024-03-07T00:11:45;101802.91;;;4.43;100.00
13968;BME280;39536;52.198;9.920;2024-03-07T00:14:12;101795.94;;;4.37;100.00
13968;BME280;39536;52.198;9.920;2024-03-07T00:16:38;101795.81;;;4.28;100.00
13968;BME280;39536;52.198;9.920;2024-03-07T00:19:05;101802.72;;;4.32;100.00
13968;BME280;39536;52.198;9.920;2024-03-07T00:21:31;101800.97;;;4.28;100.00
13968;BME280;39536;52.198;9.920;2024-03-07T00:23:58;101790.66;;;4.28;100.00
13968;BME280;39536;52.198;9.920;2024-03-07T00:26:26;101793.28;;;4.33;100.00
13968;BME280;39536;52.198;9.920;2024-03-07T00:28:54;101800.09;;;4.28;100.00
13968;BME280;39536;52.198;9.920;2024-03-07T00:31:20;101794.13;;;4.30;100.00
13968;BME280;39536;52.198;9.920;2024-03-07T00:33:47;101800.09;;;4.28;100.00
13968;BME280;39536;52.198;9.920;2024-03-07T00:36:13;101790.53;;;4.19;100.00
13968;BME280;39536;52.198;9.920;2024-03-07T00:38:40;101799.16;;;4.21;100.00
13968;BME280;39536;52.198;9.920;2024-03-07T00:41:07;101801.69;;;4.20;100.00
13968;BME280;39536;52.198;9.920;2024-03-07T00:43:35;101792.16;;;4.14;100.00
13968;BME280;39536;52.198;9.920;2024-03-07T00:46:03;101795.69;;;4.18;100.00
13968;BME280;39536;52.198;9.920;2024-03-07T00:48:31;101790.53;;;4.19;100.00
13968;BME280;39536;52.198;9.920;2024-03-07T00:50:58;101776.47;;;3.99;100.00
13968;BME280;39536;52.198;9.920;2024-03-07T00:53:25;101779.78;;;3.88;100.00
13968;BME280;39536;52.198;9.920;2024-03-07T00:55:51;101779.69;;;3.82;100.00
13968;BME280;39536;52.198;9.920;2024-03-07T00:58:18;101792.56;;;3.81;100.00
13968;BME280;39536;52.198;9.920;2024-03-07T01:00:45;101787.41;;;3.81;100.00
13968;BME280;39536;52.198;9.920;2024-03-07T01:03:13;101783.16;;;3.86;100.00
13968;BME280;39536;52.198;9.920;2024-03-07T01:05:40;101779.78;;;3.88;100.00
13968;BME280;39536;52.198;9.920;2024-03-07T01:08:06;101777.16;;;3.85;100.00
13968;BME280;39536;52.198;9.920;2024-03-07T01:10:33;101776.31;;;3.88;100.00
13968;BME280;39536;52.198;9.920;2024-03-07T01:12:59;101774.63;;;3.88;100.00
13968;BME280;39536;52.198;9.920;2024-03-07T01:15:27;101775.44;;;3.86;100.00
13968;BME280;39536;52.198;9.920;2024-03-07T01:17:54;101781.44;;;3.83;100.00
13968;BME280;39536;52.198;9.920;2024-03-07T01:20:22;101782.28;;;3.84;100.00
13968;BME280;39536;52.198;9.920;2024-03-07T01:22:50;101783.91;;;3.79;100.00
13968;BME280;39536;52.198;9.920;2024-03-07T01:25:17;101787.25;;;3.73;100.00
13968;BME280;39536;52.198;9.920;2024-03-07T01:27:44;101782.16;;;3.76;100.00
13968;BME280;39536;52.198;9.920;2024-03-07T01:30:13;101783.00;;;3.75;100.00
13968;BME280;39536;52.198;9.920;2024-03-07T01:32:39;101782.09;;;3.72;100.00
13968;BME280;39536;52.198;9.920;2024-03-07T01:35:06;101788.97;;;3.73;100.00
13968;BME280;39536;52.198;9.920;2024-03-07T01:37:35;101780.34;;;3.69;100.00
13968;BME280;39536;52.198;9.920;2024-03-07T01:40:01;101775.34;;;3.80;100.00
13968;BME280;39536;52.198;9.920;2024-03-07T01:42:28;101777.06;;;3.79;100.00
13968;BME280;39536;52.198;9.920;2024-03-07T01:44:55;101777.03;;;3.78;100.00
13968;BME280;39536;52.198;9.920;2024-03-07T01:47:22;101777.09;;;3.81;100.00
13968;BME280;39536;52.198;9.920;2024-03-07T01:49:48;101771.03;;;3.77;100.00
13968;BME280;39536;52.198;9.920;2024-03-07T01:52:16;101776.28;;;3.85;100.00
13968;BME280;39536;52.198;9.920;2024-03-07T01:54:44;101781.47;;;3.88;100.00
13968;BME280;39536;52.198;9.920;2024-03-07T01:57:12;101771.25;;;3.92;100.00
13968;BME280;39536;52.198;9.920;2024-03-07T01:59:39;101769.50;;;3.91;100.00
13968;BME280;39536;52.198;9.920;2024-03-07T02:02:06;101770.44;;;3.97;100.00
13968;BME280;39536;52.198;9.920;2024-03-07T02:04:33;101775.53;;;3.92;100.00
13968;BME280;39536;52.198;9.920;2024-03-07T02:06:59;101772.09;;;3.91;100.00
13968;BME280;39536;52.198;9.920;2024-03-07T02:09:26;101772.09;;;3.91;100.00
13968;BME280;39536;52.198;9.920;2024-03-07T02:11:54;101768.69;;;3.92;100.00
13968;BME280;39536;52.198;9.920;2024-03-07T02:14:21;101765.31;;;3.98;100.00
13968;BME280;39536;52.198;9.920;2024-03-07T02:16:47;101762.66;;;3.93;100.00
13968;BME280;39536;52.198;9.920;2024-03-07T02:19:15;101766.88;;;3.88;100.00
13968;BME280;39536;52.198;9.920;2024-03-07T02:21:43;101763.50;;;3.91;100.00
13968;BME280;39536;52.198;9.920;2024-03-07T02:24:09;101762.63;;;3.90;100.00
13968;BME280;39536;52.198;9.920;2024-03-07T02:26:36;101757.50;;;3.93;100.00
13968;BME280;39536;52.198;9.920;2024-03-07T02:29:04;101761.75;;;3.90;100.00
13968;BME280;39536;52.198;9.920;2024-03-07T02:31:31;101758.16;;;3.77;100.00
13968;BME280;39536;52.198;9.920;2024-03-07T02:34:02;101758.97;;;3.76;100.00
13968;BME280;39536;52.198;9.920;2024-03-07T02:39:52;101751.28;;;3.78;100.00
13968;BME280;39536;52.198;9.920;2024-03-07T02:42:18;101745.97;;;3.68;100.00
13968;BME280;39536;52.198;9.920;2024-03-07T02:44:45;101745.94;;;3.67;100.00
13968;BME280;39536;52.198;9.920;2024-03-07T02:47:11;101740.50;;;3.48;100.00
13968;BME280;39536;52.198;9.920;2024-03-07T02:49:38;101743.28;;;3.61;100.00
13968;BME280;39536;52.198;9.920;2024-03-07T02:52:04;101740.41;;;3.41;100.00
13968;BME280;39536;52.198;9.920;2024-03-07T02:54:32;101739.59;;;3.43;100.00
13968;BME280;39536;52.198;9.920;2024-03-07T02:57:00;101738.78;;;3.47;100.00
13968;BME280;39536;52.198;9.920;2024-03-07T02:59:27;101742.25;;;3.51;100.00
13968;BME280;39536;52.198;9.920;2024-03-07T03:01:53;101736.50;;;3.66;100.00
13968;BME280;39536;52.198;9.920;2024-03-07T03:04:21;101738.31;;;3.73;100.00
13968;BME280;39536;52.198;9.920;2024-03-07T03:06:47;101734.72;;;3.62;100.00
13968;BME280;39536;52.198;9.920;2024-03-07T03:09:14;101736.50;;;3.66;100.00
13968;BME280;39536;52.198;9.920;2024-03-07T03:11:43;101734.69;;;3.60;100.00
13968;BME280;39536;52.198;9.920;2024-03-07T03:14:11;101733.75;;;3.55;100.00
13968;BME280;39536;52.198;9.920;2024-03-07T03:16:41;101734.59;;;3.54;100.00
13968;BME280;39536;52.198;9.920;2024-03-07T03:19:08;101729.47;;;3.56;100.00
13968;BME280;39536;52.198;9.920;2024-03-07T03:21:35;101726.09;;;3.60;100.00
13968;BME280;39536;52.198;9.920;2024-03-07T03:24:02;101732.66;;;3.41;100.00
13968;BME280;39536;52.198;9.920;2024-03-07T03:26:28;101734.44;;;3.45;100.00
13968;BME280;39536;52.198;9.920;2024-03-07T03:28:56;101729.22;;;3.40;100.00
13968;BME280;39536;52.198;9.920;2024-03-07T03:31:24;101734.38;;;3.40;100.00
13968;BME280;39536;52.198;9.920;2024-03-07T03:33:51;101731.16;;;3.54;100.00
13968;BME280;39536;52.198;9.920;2024-03-07T03:36:17;101719.03;;;3.46;100.00
13968;BME280;39536;52.198;9.920;2024-03-07T03:38:44;101727.00;;;3.62;100.00
13968;BME280;39536;52.198;9.920;2024-03-07T03:41:14;101721.84;;;3.63;100.00
13968;BME280;39536;52.198;9.920;2024-03-07T03:43:41;101726.31;;;3.75;100.00
13968;BME280;39536;52.198;9.920;2024-03-07T03:46:09;101724.41;;;3.62;100.00
13968;BME280;39536;52.198;9.920;2024-03-07T03:48:38;101725.31;;;3.67;100.00
13968;BME280;39536;52.198;9.920;2024-03-07T03:51:06;101724.50;;;3.68;100.00
13968;BME280;39536;52.198;9.920;2024-03-07T03:53:33;101725.47;;;3.76;100.00
13968;BME280;39536;52.198;9.920;2024-03-07T03:56:00;101726.31;;;3.75;100.00
13968;BME280;39536;52.198;9.920;2024-03-07T03:58:26;101732.00;;;3.54;100.00
13968;BME280;39536;52.198;9.920;2024-03-07T04:00:53;101725.94;;;3.51;100.00
13968;BME280;39536;52.198;9.920;2024-03-07T04:03:19;101729.44;;;3.54;100.00
13968;BME280;39536;52.198;9.920;2024-03-07T04:05:47;101724.38;;;3.59;100.00
13968;BME280;39536;52.198;9.920;2024-03-07T04:08:14;101727.81;;;3.59;100.00
13968;BME280;39536;52.198;9.920;2024-03-07T04:10:41;101724.41;;;3.63;100.00
13968;BME280;39536;52.198;9.920;2024-03-07T04:13:07;101726.94;;;3.60;100.00
13968;BME280;39536;52.198;9.920;2024-03-07T04:15:34;101720.00;;;3.55;100.00
13968;BME280;39536;52.198;9.920;2024-03-07T04:18:00;101719.31;;;3.65;100.00
13968;BME280;39536;52.198;9.920;2024-03-07T04:20:27;101721.03;;;3.67;100.00
13968;BME280;39536;52.198;9.920;2024-03-07T04:22:55;101721.06;;;3.69;100.00
13968;BME280;39536;52.198;9.920;2024-03-07T04:25:22;101716.88;;;3.74;100.00
13968;BME280;39536;52.198;9.920;2024-03-07T04:27:50;101713.53;;;3.83;100.00
13968;BME280;39536;52.198;9.920;2024-03-07T04:30:17;101716.97;;;3.80;100.00
13968;BME280;39536;52.198;9.920;2024-03-07T04:32:43;101715.16;;;3.76;100.00
13968;BME280;39536;52.198;9.920;2024-03-07T04:35:10;101713.25;;;3.63;100.00
13968;BME280;39536;52.198;9.920;2024-03-07T04:37:37;101718.16;;;3.46;100.00
13968;BME280;39536;52.198;9.920;2024-03-07T04:40:07;101719.25;;;3.62;100.00
13968;BME280;39536;52.198;9.920;2024-03-07T04:42:40;101718.59;;;3.75;100.00
13968;BME280;39536;52.198;9.920;2024-03-07T04:45:08;101714.34;;;3.77;100.00
13968;BME280;39536;52.198;9.920;2024-03-07T04:47:36;101714.34;;;3.77;100.00
13968;BME280;39536;52.198;9.920;2024-03-07T04:50:04;101721.22;;;3.78;100.00
13968;BME280;39536;52.198;9.920;2024-03-07T04:52:31;101718.72;;;3.84;100.00
13968;BME280;39536;52.198;9.920;2024-03-07T04:54:58;101721.38;;;3.90;100.00
13968;BME280;39536;52.198;9.920;2024-03-07T04:57:26;101717.06;;;3.88;100.00
13968;BME280;39536;52.198;9.920;2024-03-07T04:59:53;101718.00;;;3.93;100.00
13968;BME280;39536;52.198;9.920;2024-03-07T05:02:20;101718.81;;;3.92;100.00
13968;BME280;39536;52.198;9.920;2024-03-07T05:04:48;101723.88;;;3.86;100.00
13968;BME280;39536;52.198;9.920;2024-03-07T05:07:17;101720.31;;;3.76;100.00
13968;BME280;39536;52.198;9.920;2024-03-07T05:09:44;101721.09;;;3.70;100.00
13968;BME280;39536;52.198;9.920;2024-03-07T05:12:10;101721.03;;;3.67;100.00
13968;BME280;39536;52.198;9.920;2024-03-07T05:14:38;101718.50;;;3.69;100.00
13968;BME280;39536;52.198;9.920;2024-03-07T05:17:05;101725.63;;;3.87;100.00
13968;BME280;39536;52.198;9.920;2024-03-07T05:19:33;101719.72;;;3.94;100.00
13968;BME280;39536;52.198;9.920;2024-03-07T05:22:00;101726.75;;;4.06;100.00
13968;BME280;39536;52.198;9.920;2024-03-07T05:24:28;101728.47;;;4.07;100.00
13968;BME280;39536;52.198;9.920;2024-03-07T05:26:54;101727.56;;;4.03;100.00
13968;BME280;39536;52.198;9.920;2024-03-07T05:29:22;101730.09;;;4.00;100.00
13968;BME280;39536;52.198;9.920;2024-03-07T05:31:49;101728.34;;;3.98;100.00
13968;BME280;39536;52.198;9.920;2024-03-07T05:34:16;101726.59;;;3.93;100.00
13968;BME280;39536;52.198;9.920;2024-03-07T05:36:45;101726.72;;;4.03;100.00
13968;BME280;39536;52.198;9.920;2024-03-07T05:39:12;101730.88;;;3.94;100.00
13968;BME280;39536;52.198;9.920;2024-03-07T05:41:38;101730.97;;;3.99;100.00
13968;BME280;39536;52.198;9.920;2024-03-07T05:44:06;101728.25;;;3.91;100.00
13968;BME280;39536;52.198;9.920;2024-03-07T05:46:35;101731.69;;;3.90;100.00
13968;BME280;39536;52.198;9.920;2024-03-07T05:49:03;101727.19;;;3.74;100.00
13968;BME280;39536;52.198;9.920;2024-03-07T05:51:30;101729.75;;;3.74;100.00
13968;BME280;39536;52.198;9.920;2024-03-07T05:53:57;101730.75;;;3.84;100.00
13968;BME280;39536;52.198;9.920;2024-03-07T05:56:24;101733.47;;;3.93;100.00
13968;BME280;39536;52.198;9.920;2024-03-07T05:58:50;101731.81;;;4.00;100.00
13968;BME280;39536;52.198;9.920;2024-03-07T06:01:17;101740.38;;;3.97;100.00
13968;BME280;39536;52.198;9.920;2024-03-07T06:03:44;101734.56;;;4.13;100.00
13968;BME280;39536;52.198;9.920;2024-03-07T06:06:12;101739.81;;;4.20;100.00
13968;BME280;39536;52.198;9.920;2024-03-07T06:08:38;101733.88;;;4.25;100.00
13968;BME280;39536;52.198;9.920;2024-03-07T06:11:07;101734.56;;;4.13;100.00
13968;BME280;39536;52.198;9.920;2024-03-07T06:13:34;101737.16;;;4.13;100.00
13968;BME280;39536;52.198;9.920;2024-03-07T06:16:00;101741.38;;;4.07;100.00
13968;BME280;39536;52.198;9.920;2024-03-07T06:18:30;101741.31;;;4.04;100.00
13968;BME280;39536;52.198;9.920;2024-03-07T06:20:57;101742.72;;;3.82;100.00
13968;BME280;39536;52.198;9.920;2024-03-07T06:23:25;101737.72;;;3.89;100.00
13968;BME280;39536;52.198;9.920;2024-03-07T06:25:54;101746.31;;;3.91;100.00
13968;BME280;39536;52.198;9.920;2024-03-07T06:28:21;101743.69;;;3.88;100.00
13968;BME280;39536;52.198;9.920;2024-03-07T06:30:47;101747.28;;;4.00;100.00
13968;BME280;39536;52.198;9.920;2024-03-07T06:33:14;101751.47;;;3.90;100.00
13968;BME280;39536;52.198;9.920;2024-03-07T06:35:42;101756.75;;;3.99;100.00
13968;BME280;39536;52.198;9.920;2024-03-07T06:38:09;101753.31;;;4.00;100.00
13968;BME280;39536;52.198;9.920;2024-03-07T06:40:38;101755.13;;;4.07;100.00
13968;BME280;39536;52.198;9.920;2024-03-07T06:43:05;101750.03;;;4.12;100.00
13968;BME280;39536;52.198;9.920;2024-03-07T06:45:32;101755.25;;;4.16;100.00
13968;BME280;39536;52.198;9.920;2024-03-07T06:48:00;101747.53;;;4.18;100.00
13968;BME280;39536;52.198;9.920;2024-03-07T06:50:27;101749.13;;;4.10;100.00
13968;BME280;39536;52.198;9.920;2024-03-07T06:52:54;101744.63;;;3.93;100.00
13968;BME280;39536;52.198;9.920;2024-03-07T06:55:21;101750.66;;;3.96;100.00
13968;BME280;39536;52.198;9.920;2024-03-07T06:57:49;101755.81;;;3.94;100.00
13968;BME280;39536;52.198;9.920;2024-03-07T07:00:16;101753.34;;;4.05;100.00
13968;BME280;39536;52.198;9.920;2024-03-07T07:02:44;101755.97;;;4.08;100.00
13968;BME280;39536;52.198;9.920;2024-03-07T07:05:11;101750.69;;;3.97;100.00
13968;BME280;39536;52.198;9.920;2024-03-07T07:07:41;101756.63;;;3.90;100.00
13968;BME280;39536;52.198;9.920;2024-03-07T07:10:09;101752.44;;;4.00;100.00
13968;BME280;39536;52.198;9.920;2024-03-07T07:12:41;101756.88;;;4.10;100.00
13968;BME280;39536;52.198;9.920;2024-03-07T07:15:09;101759.41;;;4.07;100.00
13968;BME280;39536;52.198;9.920;2024-03-07T07:17:36;101750.81;;;4.06;100.00
13968;BME280;39536;52.198;9.920;2024-03-07T07:20:04;101759.63;;;4.21;100.00
13968;BME280;39536;52.198;9.920;2024-03-07T07:22:36;101757.78;;;4.13;100.00
13968;BME280;39536;52.198;9.920;2024-03-07T07:25:04;101759.47;;;4.10;100.00
13968;BME280;39536;52.198;9.920;2024-03-07T07:27:31;101753.69;;;4.28;100.00
13968;BME280;39536;52.198;9.920;2024-03-07T07:29:58;101748.53;;;4.28;100.00
13968;BME280;39536;52.198;9.920;2024-03-07T07:32:26;101751.16;;;4.31;100.00
13968;BME280;39536;52.198;9.920;2024-03-07T07:34:53;101750.25;;;4.29;100.00
13968;BME280;39536;52.198;9.920;2024-03-07T07:37:19;101749.34;;;4.24;100.00
13968;BME280;39536;52.198;9.920;2024-03-07T07:39:46;101751.63;;;4.02;100.00
13968;BME280;39536;52.198;9.920;2024-03-07T07:42:13;101754.16;;;4.01;100.00
13968;BME280;39536;52.198;9.920;2024-03-07T07:44:40;101749.31;;;4.21;100.00
13968;BME280;39536;52.198;9.920;2024-03-07T07:47:08;101753.66;;;4.25;100.00
13968;BME280;39536;52.198;9.920;2024-03-07T07:49:37;101746.81;;;4.28;100.00
13968;BME280;39536;52.198;9.920;2024-03-07T07:52:05;101748.53;;;4.28;100.00
13968;BME280;39536;52.198;9.920;2024-03-07T07:54:31;101739.00;;;4.21;100.00
13968;BME280;39536;52.198;9.920;2024-03-07T07:56:58;101740.75;;;4.26;100.00
13968;BME280;39536;52.198;9.920;2024-03-07T07:59:24;101746.69;;;4.19;100.00
13968;BME280;39536;52.198;9.920;2024-03-07T08:01:51;101744.97;;;4.18;100.00
13968;BME280;39536;52.198;9.920;2024-03-07T08:04:20;101739.06;;;4.28;100.00
13968;BME280;39536;52.198;9.920;2024-03-07T08:06:48;101734.94;;;4.39;100.00
13968;BME280;39536;52.198;9.920;2024-03-07T08:09:15;101738.44;;;4.46;100.00
13968;BME280;39536;52.198;9.920;2024-03-07T08:11:42;101730.69;;;4.46;100.00
13968;BME280;39536;52.198;9.920;2024-03-07T08:14:08;101735.81;;;4.43;100.00
13968;BME280;39536;52.198;9.920;2024-03-07T08:16:35;101736.78;;;4.54;100.00
13968;BME280;39536;52.198;9.920;2024-03-07T08:19:01;101741.16;;;4.60;100.00
13968;BME280;39536;52.198;9.920;2024-03-07T08:21:28;101743.72;;;4.55;100.00
13968;BME280;39536;52.198;9.920;2024-03-07T08:23:58;101742.06;;;4.63;100.00
13968;BME280;39536;52.198;9.920;2024-03-07T08:26:25;101740.47;;;4.76;100.00
13968;BME280;39536;52.198;9.920;2024-03-07T08:28:52;101739.69;;;4.80;100.00
13968;BME280;39536;52.198;9.920;2024-03-07T08:31:18;101739.75;;;4.86;100.00
13968;BME280;39536;52.198;9.920;2024-03-07T08:33:45;101733.78;;;4.94;100.00
13968;BME280;39536;52.198;9.920;2024-03-07T08:36:12;101738.94;;;4.94;100.00
13968;BME280;39536;52.198;9.920;2024-03-07T08:38:38;101733.03;;;5.05;100.00
13968;BME280;39536;52.198;9.920;2024-03-07T08:41:06;101729.69;;;5.16;100.00
13968;BME280;39536;52.198;9.920;2024-03-07T08:43:33;101721.06;;;5.12;100.00
13968;BME280;39536;52.198;9.920;2024-03-07T08:45:59;101723.72;;;5.21;100.00
13968;BME280;39536;52.198;9.920;2024-03-07T08:48:26;101725.50;;;5.28;100.00
13968;BME280;39536;52.198;9.920;2024-03-07T08:50:52;101729.91;;;5.42;100.00
13968;BME280;39536;52.198;9.920;2024-03-07T08:53:19;101725.72;;;5.54;100.00
13968;BME280;39536;52.198;9.920;2024-03-07T08:55:46;101717.13;;;5.62;100.00
13968;BME280;39536;52.198;9.920;2024-03-07T08:58:13;101723.19;;;5.67;100.00
13968;BME280;39536;52.198;9.920;2024-03-07T09:00:40;101718.97;;;5.78;100.00
13968;BME280;39536;52.198;9.920;2024-03-07T09:03:07;101723.34;;;5.90;100.00
13968;BME280;39536;52.198;9.920;2024-03-07T09:05:35;101726.00;;;6.00;100.00
13968;BME280;39536;52.198;9.920;2024-03-07T09:08:02;101724.34;;;6.13;100.00
13968;BME280;39536;52.198;9.920;2024-03-07T09:10:29;101721.81;;;6.25;100.00
13968;BME280;39536;52.198;9.920;2024-03-07T09:12:56;101727.06;;;6.36;100.00
13968;BME280;39536;52.198;9.920;2024-03-07T09:15:24;101726.19;;;6.40;100.00
13968;BME280;39536;52.198;9.920;2024-03-07T09:17:52;101726.22;;;6.39;100.00
13968;BME280;39536;52.198;9.920;2024-03-07T09:20:18;101721.06;;;6.45;100.00
13968;BME280;39536;52.198;9.920;2024-03-07T09:22:46;101718.50;;;6.51;100.00
13968;BME280;39536;52.198;9.920;2024-03-07T09:25:14;101720.25;;;6.61;100.00
13968;BME280;39536;52.198;9.920;2024-03-07T09:27:41;101721.97;;;6.64;100.00
13968;BME280;39536;52.198;9.920;2024-03-07T09:30:08;101718.56;;;6.80;100.00
13968;BME280;39536;52.198;9.920;2024-03-07T09:32:38;101720.25;;;6.78;100.00
13968;BME280;39536;52.198;9.920;2024-03-07T09:35:06;101723.72;;;6.79;100.00
13968;BME280;39536;52.198;9.920;2024-03-07T09:37:40;101715.13;;;6.83;100.00
13968;BME280;39536;52.198;9.920;2024-03-07T09:40:08;101719.44;;;6.87;100.00
13968;BME280;39536;52.198;9.920;2024-03-07T09:42:41;101715.09;;;6.80;100.00
13968;BME280;39536;52.198;9.920;2024-03-07T09:45:12;101719.41;;;6.73;100.00
13968;BME280;39536;52.198;9.920;2024-03-07T09:47:42;101711.66;;;6.79;100.00
13968;BME280;39536;52.198;9.920;2024-03-07T09:50:10;101707.34;;;6.89;100.00
13968;BME280;39536;52.198;9.920;2024-03-07T09:52:38;101712.53;;;6.97;100.00
13968;BME280;39536;52.198;9.920;2024-03-07T09:55:06;101708.22;;;7.18;100.00
13968;BME280;39536;52.198;9.920;2024-03-07T09:57:34;101699.59;;;7.24;100.00
13968;BME280;39536;52.198;9.920;2024-03-07T10:00:02;101699.56;;;7.53;100.00
13968;BME280;39536;52.198;9.920;2024-03-07T10:02:31;101691.75;;;7.79;100.00
13968;BME280;39536;52.198;9.920;2024-03-07T10:05:00;101689.06;;;8.08;100.00
13968;BME280;39536;52.198;9.920;2024-03-07T10:07:31;101697.66;;;8.24;100.00
13968;BME280;39536;52.198;9.920;2024-03-07T10:10:02;101690.69;;;8.39;100.00
13968;BME280;39536;52.198;9.920;2024-03-07T10:12:35;101696.69;;;8.47;100.00
13968;BME280;39536;52.198;9.920;2024-03-07T10:15:04;101694.13;;;8.36;100.00
13968;BME280;39536;52.198;9.920;2024-03-07T10:17:31;101694.06;;;8.53;100.00
13968;BME280;39536;52.198;9.920;2024-03-07T10:19:59;101693.22;;;8.49;100.00
13968;BME280;39536;52.198;9.920;2024-03-07T10:22:26;101689.81;;;8.44;100.00
13968;BME280;39536;52.198;9.920;2024-03-07T10:24:53;101689.75;;;8.52;100.00
13968;BME280;39536;52.198;9.920;2024-03-07T10:27:21;101690.69;;;8.34;100.00
13968;BME280;39536;52.198;9.920;2024-03-07T10:29:48;101686.31;;;8.38;100.00
13968;BME280;39536;52.198;9.920;2024-03-07T10:32:19;101685.53;;;8.29;100.00
13968;BME280;39536;52.198;9.920;2024-03-07T10:34:46;101685.44;;;8.49;100.00
13968;BME280;39536;52.198;9.920;2024-03-07T10:37:15;101675.84;;;8.64;100.00
13968;BME280;39536;52.198;9.920;2024-03-07T10:39:43;101680.22;;;8.57;100.00
13968;BME280;39536;52.198;9.920;2024-03-07T10:42:13;101680.31;;;8.39;100.00
13968;BME280;39536;52.198;9.920;2024-03-07T10:44:43;101676.91;;;8.20;100.00
13968;BME280;39536;52.198;9.920;2024-03-07T10:47:13;101676.84;;;8.41;100.00
13968;BME280;39536;52.198;9.920;2024-03-07T10:49:48;101674.94;;;8.68;100.00
13968;BME280;39536;52.198;9.920;2024-03-07T10:52:28;101668.75;;;8.87;100.00
13968;BME280;39536;52.198;9.920;2024-03-07T10:55:03;101668.78;;;8.81;100.00
13968;BME280;39536;52.198;9.920;2024-03-07T10:57:41;101671.38;;;8.84;100.00
13968;BME280;39536;52.198;9.920;2024-03-07T11:00:12;101672.25;;;8.80;100.00
13968;BME280;39536;52.198;9.920;2024-03-07T11:02:56;101663.53;;;8.87;100.00
13968;BME280;39536;52.198;9.920;2024-03-07T11:05:25;101666.94;;;8.98;100.00
13968;BME280;39536;52.198;9.920;2024-03-07T11:07:58;101660.84;;;9.04;100.00
13968;BME280;39536;52.198;9.920;2024-03-07T11:10:27;101658.91;;;9.24;100.00
13968;BME280;39536;52.198;9.920;2024-03-07T11:12:55;101657.16;;;9.25;100.00
13968;BME280;39536;52.198;9.920;2024-03-07T11:15:23;101656.50;;;9.01;100.00
13968;BME280;39536;52.198;9.920;2024-03-07T11:17:54;101660.94;;;8.92;100.00
13968;BME280;39536;52.198;9.920;2024-03-07T11:20:22;101649.84;;;8.67;100.00
13968;BME280;39536;52.198;9.920;2024-03-07T11:22:49;101648.94;;;8.74;100.00
13968;BME280;39536;52.198;9.920;2024-03-07T11:25:21;101639.41;;;8.73;100.00
13968;BME280;39536;52.198;9.920;2024-03-07T11:27:52;101643.69;;;8.82;100.00
13968;BME280;39536;52.198;9.920;2024-03-07T11:30:21;101649.81;;;8.71;100.00
13968;BME280;39536;52.198;9.920;2024-03-07T11:32:49;101636.84;;;8.65;100.00
13968;BME280;39536;52.198;9.920;2024-03-07T11:35:19;101641.13;;;8.74;100.00
13968;BME280;39536;52.198;9.920;2024-03-07T11:37:56;101639.47;;;8.64;100.00
13968;BME280;39536;52.198;9.920;2024-03-07T11:40:46;101630.03;;;8.52;100.00
13968;BME280;39536;52.198;9.920;2024-03-07T11:43:15;101626.56;;;8.54;100.00
13968;BME280;39536;52.198;9.920;2024-03-07T11:45:42;101636.78;;;8.77;100.00
13968;BME280;39536;52.198;9.920;2024-03-07T11:48:17;101623.75;;;8.81;100.00
13968;BME280;39536;52.198;9.920;2024-03-07T11:50:45;101618.53;;;8.84;100.00
13968;BME280;39536;52.198;9.920;2024-03-07T11:53:12;101622.06;;;8.76;100.00
13968;BME280;39536;52.198;9.920;2024-03-07T11:55:39;101624.66;;;8.79;100.00
13968;BME280;39536;52.198;9.920;2024-03-07T11:58:12;101613.44;;;8.73;100.00
13968;BME280;39536;52.198;9.920;2024-03-07T12:00:40;101622.19;;;8.60;100.00
13968;BME280;39536;52.198;9.920;2024-03-07T12:03:08;101613.41;;;8.79;100.00
13968;BME280;39536;52.198;9.920;2024-03-07T12:05:38;101614.19;;;8.87;100.00
13968;BME280;39536;52.198;9.920;2024-03-07T12:08:05;101610.50;;;9.16;100.00
13968;BME280;39536;52.198;9.920;2024-03-07T12:10:32;101614.53;;;9.43;100.00
13968;BME280;39536;52.198;9.920;2024-03-07T12:12:59;101603.13;;;9.55;100.00
13968;BME280;39536;52.198;9.920;2024-03-07T12:15:28;101598.94;;;9.44;100.00
13968;BME280;39536;52.198;9.920;2024-03-07T12:17:54;101597.09;;;9.53;100.00
13968;BME280;39536;52.198;9.920;2024-03-07T12:20:23;101591.03;;;9.52;100.00
13968;BME280;39536;52.198;9.920;2024-03-07T12:22:56;101591.19;;;9.37;100.00
13968;BME280;39536;52.198;9.920;2024-03-07T12:25:24;101580.94;;;9.23;100.00
13968;BME280;39536;52.198;9.920;2024-03-07T12:27:59;101588.81;;;9.17;100.00
13968;BME280;39536;52.198;9.920;2024-03-07T12:30:29;101592.28;;;9.14;100.00
13968;BME280;39536;52.198;9.920;2024-03-07T12:32:58;101593.22;;;9.06;100.00
13968;BME280;39536;52.198;9.920;2024-03-07T12:35:25;101583.75;;;9.00;100.00
13968;BME280;39536;52.198;9.920;2024-03-07T12:37:52;101585.41;;;9.10;100.00
13968;BME280;39536;52.198;9.920;2024-03-07T12:40:20;101580.16;;;9.16;100.00
13968;BME280;39536;52.198;9.920;2024-03-07T12:42:51;101578.72;;;8.83;100.00
13968;BME280;39536;52.198;9.920;2024-03-07T12:45:18;101577.88;;;8.78;100.00
13968;BME280;39536;52.198;9.920;2024-03-07T12:47:47;101583.09;;;8.76;100.00
13968;BME280;39536;52.198;9.920;2024-03-07T12:50:17;101573.53;;;8.83;100.00
13968;BME280;39536;52.198;9.920;2024-03-07T12:52:45;101575.09;;;8.99;100.00
13968;BME280;39536;52.198;9.920;2024-03-07T12:55:13;101572.06;;;9.42;100.00
13968;BME280;39536;52.198;9.920;2024-03-07T12:57:39;101565.38;;;9.94;100.00